createdAt,value
2019-02-17T00:00:35.822Z,97.00
2019-02-17T00:03:04.978Z,97.00
2019-02-17T00:05:34.032Z,97.10
2019-02-17T00:08:03.103Z,97.10
2019-02-17T00:10:32.102Z,97.00
2019-02-17T00:13:01.106Z,97.00
2019-02-17T00:15:30.059Z,97.20
2019-02-17T00:17:59.031Z,97.30
2019-02-17T00:20:28.015Z,97.40
2019-02-17T00:22:57.012Z,97.60
2019-02-17T00:25:25.927Z,97.60
2019-02-17T00:27:54.921Z,97.50
2019-02-17T00:30:26.248Z,97.60
2019-02-17T00:32:55.158Z,97.70
2019-02-17T00:35:24.159Z,97.80
2019-02-17T00:37:53.108Z,97.70
2019-02-17T00:40:22.051Z,97.80
2019-02-17T00:42:50.994Z,97.80
2019-02-17T00:45:20.337Z,97.80
2019-02-17T00:47:49.273Z,97.80
2019-02-17T00:50:18.279Z,97.70
2019-02-17T00:52:47.263Z,97.60
2019-02-17T00:55:16.235Z,97.50
2019-02-17T00:57:45.136Z,97.60
2019-02-17T01:00:14.309Z,97.60
2019-02-17T01:02:43.232Z,97.60
2019-02-17T01:05:12.159Z,97.50
2019-02-17T01:07:41.236Z,97.40
2019-02-17T01:10:10.535Z,97.50
2019-02-17T01:12:39.617Z,97.60
2019-02-17T01:15:09.198Z,97.60
2019-02-17T01:17:38.141Z,97.80
2019-02-17T01:20:07.631Z,98.00
2019-02-17T01:22:37.242Z,98.20
2019-02-17T01:25:06.465Z,98.40
2019-02-17T01:27:35.429Z,98.60
2019-02-17T01:30:04.937Z,98.70
2019-02-17T01:32:33.842Z,98.80
2019-02-17T01:35:02.749Z,98.90
2019-02-17T01:37:31.806Z,99.00
2019-02-17T01:40:00.734Z,99.10
2019-02-17T01:42:29.713Z,99.10
2019-02-17T01:44:58.657Z,99.10
2019-02-17T01:47:27.665Z,99.20
2019-02-17T01:49:56.710Z,99.30
2019-02-17T01:52:25.776Z,99.40
2019-02-17T01:54:54.691Z,99.40
2019-02-17T01:57:24.275Z,99.60
2019-02-17T01:59:53.223Z,99.60
2019-02-17T02:02:22.283Z,99.70
2019-02-17T02:04:51.216Z,99.70
2019-02-17T02:07:20.376Z,99.80
2019-02-17T02:09:49.329Z,99.80
2019-02-17T02:12:18.454Z,99.90
2019-02-17T02:14:47.452Z,99.90
2019-02-17T02:17:16.484Z,99.90
2019-02-17T02:19:45.767Z,99.90
2019-02-17T02:22:14.730Z,99.90
2019-02-17T02:24:43.723Z,99.90
2019-02-17T02:27:12.735Z,99.90
2019-02-17T02:29:41.828Z,99.90
2019-02-17T02:32:10.847Z,99.90
2019-02-17T02:34:39.835Z,99.90
2019-02-17T02:37:09.021Z,99.90
2019-02-17T02:39:38.066Z,99.90
2019-02-17T02:42:06.992Z,99.90
2019-02-17T02:44:36.052Z,99.90
2019-02-17T02:47:05.043Z,99.90
2019-02-17T02:49:33.972Z,99.90
2019-02-17T02:52:03.028Z,99.90
2019-02-17T02:54:31.936Z,99.90
2019-02-17T02:57:00.883Z,99.90
2019-02-17T02:59:29.917Z,99.60
2019-02-17T03:01:58.890Z,99.70
2019-02-17T03:04:27.815Z,99.70
2019-02-17T03:06:59.304Z,99.60
2019-02-17T03:09:28.252Z,99.60
2019-02-17T03:11:57.161Z,99.40
2019-02-17T03:14:26.151Z,99.60
2019-02-17T03:16:55.071Z,99.70
2019-02-17T03:19:23.988Z,99.90
2019-02-17T03:21:53.023Z,99.90
2019-02-17T03:24:21.970Z,99.90
2019-02-17T03:26:50.967Z,99.90
2019-02-17T03:29:20.061Z,99.90
2019-02-17T03:31:48.995Z,99.90
2019-02-17T03:34:17.966Z,99.90
2019-02-17T03:36:46.988Z,99.90
2019-02-17T03:39:15.955Z,99.90
2019-02-17T03:41:44.893Z,99.90
2019-02-17T03:44:13.952Z,99.90
2019-02-17T03:46:42.947Z,99.90
2019-02-17T03:49:11.902Z,99.90
2019-02-17T03:51:40.831Z,99.90
2019-02-17T03:54:09.755Z,99.90
2019-02-17T03:56:38.776Z,99.90
2019-02-17T03:59:07.867Z,99.90
2019-02-17T04:01:36.782Z,99.90
2019-02-17T04:04:05.744Z,99.90
2019-02-17T04:06:34.780Z,99.90
2019-02-17T04:09:05.482Z,99.90
2019-02-17T04:11:34.384Z,99.90
2019-02-17T04:14:03.434Z,99.90
2019-02-17T04:16:32.497Z,99.90
2019-02-17T04:19:01.424Z,99.90
2019-02-17T04:21:30.361Z,99.90
2019-02-17T04:23:59.297Z,99.90
2019-02-17T04:26:28.259Z,99.90
2019-02-17T04:28:57.221Z,99.90
2019-02-17T04:31:26.169Z,99.90
2019-02-17T04:33:55.125Z,99.90
2019-02-17T04:36:24.068Z,99.90
2019-02-17T04:38:52.987Z,99.90
2019-02-17T04:41:21.891Z,99.90
2019-02-17T04:43:50.856Z,99.90
2019-02-17T04:46:19.745Z,99.90
2019-02-17T04:48:48.656Z,99.90
2019-02-17T04:51:17.623Z,99.90
2019-02-17T04:53:46.629Z,99.90
2019-02-17T04:56:15.646Z,99.90
2019-02-17T04:58:44.658Z,99.90
2019-02-17T05:01:13.571Z,99.90
2019-02-17T05:03:42.566Z,99.90
2019-02-17T05:06:11.599Z,99.90
2019-02-17T05:08:40.512Z,99.90
2019-02-17T05:11:09.453Z,99.90
2019-02-17T05:13:38.488Z,99.90
2019-02-17T05:16:07.394Z,99.90
2019-02-17T05:18:36.345Z,99.90
2019-02-17T05:21:05.290Z,99.90
2019-02-17T05:23:34.211Z,99.90
2019-02-17T05:26:03.131Z,99.90
2019-02-17T05:28:32.070Z,99.90
2019-02-17T05:31:01.021Z,99.90
2019-02-17T05:33:30.055Z,99.90
2019-02-17T05:35:59.149Z,99.90
2019-02-17T05:38:28.189Z,99.90
2019-02-17T05:40:57.166Z,99.90
2019-02-17T05:43:26.150Z,99.90
2019-02-17T05:45:55.100Z,99.90
2019-02-17T05:48:24.101Z,99.90
2019-02-17T05:50:53.106Z,99.90
2019-02-17T05:53:22.017Z,99.90
2019-02-17T05:55:50.987Z,99.90
2019-02-17T05:58:19.933Z,99.90
2019-02-17T06:00:48.930Z,99.90
2019-02-17T06:03:17.945Z,99.90
2019-02-17T06:05:46.946Z,99.90
2019-02-17T06:08:15.888Z,99.90
2019-02-17T06:10:44.787Z,99.90
2019-02-17T06:13:13.732Z,99.90
2019-02-17T06:15:42.778Z,99.90
2019-02-17T06:18:11.819Z,99.90
2019-02-17T06:20:40.854Z,99.90
2019-02-17T06:23:09.822Z,99.90
2019-02-17T06:25:38.750Z,99.90
2019-02-17T06:28:07.717Z,99.90
2019-02-17T06:30:36.657Z,99.90
2019-02-17T06:33:05.579Z,99.90
2019-02-17T06:35:34.549Z,99.90
2019-02-17T06:38:03.483Z,99.90
2019-02-17T06:40:32.510Z,99.90
2019-02-17T06:43:01.606Z,99.90
2019-02-17T06:45:30.540Z,99.90
2019-02-17T06:47:59.477Z,99.90
2019-02-17T06:50:28.424Z,99.90
2019-02-17T06:52:57.356Z,99.90
2019-02-17T06:55:45.539Z,99.90
2019-02-17T06:58:14.483Z,99.90
2019-02-17T07:00:49.295Z,99.90
2019-02-17T07:03:18.319Z,99.90
2019-02-17T07:06:01.597Z,99.90
2019-02-17T07:08:30.566Z,99.90
2019-02-17T07:10:59.563Z,99.90
2019-02-17T07:13:28.531Z,99.90
2019-02-17T07:15:57.457Z,99.90
2019-02-17T07:18:26.453Z,99.90
2019-02-17T07:20:55.430Z,99.90
2019-02-17T07:23:24.368Z,99.90
2019-02-17T07:25:53.380Z,99.90
2019-02-17T07:28:22.348Z,99.90
2019-02-17T07:30:51.290Z,99.90
2019-02-17T07:33:20.268Z,99.90
2019-02-17T07:35:49.222Z,99.90
2019-02-17T07:38:18.139Z,99.90
2019-02-17T07:40:47.138Z,99.90
2019-02-17T07:43:17.473Z,99.90
2019-02-17T07:45:46.456Z,99.90
2019-02-17T07:48:15.416Z,99.90
2019-02-17T07:50:44.439Z,99.80
2019-02-17T07:53:13.640Z,99.80
2019-02-17T07:55:42.544Z,99.60
2019-02-17T07:58:11.560Z,99.50
2019-02-17T08:00:40.480Z,99.30
2019-02-17T08:03:09.410Z,99.10
2019-02-17T08:05:38.429Z,98.90
2019-02-17T08:08:07.375Z,98.90
2019-02-17T08:10:36.295Z,98.70
2019-02-17T08:13:05.285Z,98.50
2019-02-17T08:15:34.277Z,98.60
2019-02-17T08:18:03.203Z,98.00
2019-02-17T08:20:32.155Z,97.90
2019-02-17T08:23:01.163Z,97.80
2019-02-17T08:25:30.188Z,97.80
2019-02-17T08:27:59.212Z,97.70
2019-02-17T08:30:28.186Z,97.50
2019-02-17T08:32:57.115Z,97.40
2019-02-17T08:35:26.163Z,97.30
2019-02-17T08:37:55.162Z,97.20
2019-02-17T08:40:24.107Z,96.90
2019-02-17T08:42:53.107Z,96.70
2019-02-17T08:45:22.051Z,96.70
2019-02-17T08:47:50.959Z,96.50
2019-02-17T08:50:20.208Z,96.20
2019-02-17T08:52:49.289Z,96.10
2019-02-17T08:55:18.185Z,95.90
2019-02-17T08:57:47.115Z,96.00
2019-02-17T09:00:16.034Z,95.80
2019-02-17T09:02:45.023Z,95.70
2019-02-17T09:05:14.073Z,95.80
2019-02-17T09:07:43.098Z,95.40
2019-02-17T09:10:12.572Z,95.00
2019-02-17T09:12:41.638Z,95.00
2019-02-17T09:15:11.533Z,94.90
2019-02-17T09:17:40.719Z,94.80
2019-02-17T09:20:10.488Z,94.70
2019-02-17T09:22:39.426Z,94.70
2019-02-17T09:25:09.665Z,94.50
2019-02-17T09:27:38.753Z,94.40
2019-02-17T09:30:11.436Z,94.40
2019-02-17T09:32:40.384Z,94.30
2019-02-17T09:35:09.691Z,94.10
2019-02-17T09:37:38.679Z,94.20
2019-02-17T09:40:26.850Z,94.10
2019-02-17T09:42:55.892Z,93.90
2019-02-17T09:45:24.952Z,93.80
2019-02-17T09:47:53.919Z,93.70
2019-02-17T09:50:22.966Z,93.50
2019-02-17T09:52:51.920Z,93.40
2019-02-17T09:55:20.917Z,93.40
2019-02-17T09:57:49.897Z,93.30
2019-02-17T10:00:18.889Z,93.20
2019-02-17T10:02:48.018Z,93.00
2019-02-17T10:05:17.069Z,92.80
2019-02-17T10:07:46.077Z,93.00
2019-02-17T10:10:15.219Z,92.50
2019-02-17T10:12:44.185Z,92.50
2019-02-17T10:15:13.551Z,92.50
2019-02-17T10:17:42.588Z,92.40
2019-02-17T10:20:11.731Z,92.30
2019-02-17T10:22:40.752Z,92.00
2019-02-17T10:25:10.072Z,92.00
2019-02-17T10:27:39.083Z,91.90
2019-02-17T10:30:10.201Z,91.80
2019-02-17T10:32:39.448Z,91.70
2019-02-17T10:35:08.680Z,91.50
2019-02-17T10:37:37.755Z,91.80
2019-02-17T10:40:09.877Z,91.20
2019-02-17T10:42:48.117Z,91.20
2019-02-17T10:45:17.207Z,91.10
2019-02-17T10:47:46.128Z,90.90
2019-02-17T10:50:15.269Z,90.80
2019-02-17T10:52:44.240Z,90.70
2019-02-17T10:55:13.360Z,90.70
2019-02-17T10:57:42.453Z,90.50
2019-02-17T11:00:13.773Z,90.30
2019-02-17T11:02:46.992Z,90.20
2019-02-17T11:05:13.755Z,89.00
2019-02-17T11:07:43.025Z,88.40
2019-02-17T11:10:12.470Z,88.30
2019-02-17T11:12:41.572Z,88.20
2019-02-17T11:15:12.719Z,88.40
2019-02-17T11:17:41.703Z,88.20
2019-02-17T11:20:10.657Z,88.10
2019-02-17T11:22:39.662Z,88.00
2019-02-17T11:25:08.777Z,87.70
2019-02-17T11:27:37.809Z,87.60
2019-02-17T11:30:09.172Z,88.00
2019-02-17T11:32:38.148Z,87.90
2019-02-17T11:35:07.416Z,88.10
2019-02-17T11:37:36.530Z,87.40
2019-02-17T11:40:07.505Z,87.30
2019-02-17T11:42:36.651Z,87.10
2019-02-17T11:45:08.696Z,86.80
2019-02-17T11:47:37.627Z,86.10
2019-02-17T11:50:06.971Z,86.90
2019-02-17T11:52:35.991Z,86.30
2019-02-17T11:55:05.943Z,86.30
2019-02-17T11:57:35.064Z,86.00
2019-02-17T12:00:04.851Z,85.70
2019-02-17T12:02:33.879Z,85.40
2019-02-17T12:05:02.837Z,86.00
2019-02-17T12:07:31.882Z,85.40
2019-02-17T12:10:00.899Z,85.20
2019-02-17T12:12:29.852Z,84.70
2019-02-17T12:14:58.846Z,84.70
2019-02-17T12:17:27.980Z,85.00
2019-02-17T12:20:04.749Z,85.30
2019-02-17T12:22:42.193Z,85.80
2019-02-17T12:25:22.669Z,86.00
2019-02-17T12:28:14.040Z,86.00
2019-02-17T12:30:44.844Z,86.10
2019-02-17T12:33:19.107Z,86.30
2019-02-17T12:35:44.498Z,86.40
2019-02-17T12:38:19.427Z,86.10
2019-02-17T12:40:48.370Z,85.80
2019-02-17T12:43:17.418Z,85.90
2019-02-17T12:45:46.461Z,86.00
2019-02-17T12:48:15.388Z,85.90
2019-02-17T12:50:44.365Z,86.00
2019-02-17T12:53:13.400Z,86.00
2019-02-17T12:55:42.418Z,85.80
2019-02-17T12:58:11.510Z,85.90
2019-02-17T13:00:40.613Z,86.10
2019-02-17T13:03:09.603Z,86.20
2019-02-17T13:05:38.635Z,85.50
2019-02-17T13:08:07.667Z,85.10
2019-02-17T13:10:36.598Z,84.20
2019-02-17T13:13:05.749Z,82.80
2019-02-17T13:15:34.887Z,82.40
2019-02-17T13:18:03.960Z,82.10
2019-02-17T13:20:32.971Z,82.10
2019-02-17T13:23:01.966Z,82.00
2019-02-17T13:25:30.916Z,82.10
2019-02-17T13:27:59.846Z,82.10
2019-02-17T13:30:28.965Z,81.90
2019-02-17T13:32:58.069Z,82.10
2019-02-17T13:35:28.035Z,82.30
2019-02-17T13:37:57.022Z,81.80
2019-02-17T13:40:26.037Z,81.50
2019-02-17T13:42:54.979Z,81.30
2019-02-17T13:45:23.927Z,81.00
2019-02-17T13:47:52.840Z,80.90
2019-02-17T13:50:21.842Z,81.00
2019-02-17T13:52:50.811Z,81.00
2019-02-17T13:55:19.820Z,81.50
2019-02-17T13:57:48.780Z,80.80
2019-02-17T14:00:17.764Z,80.50
2019-02-17T14:02:46.987Z,80.30
2019-02-17T14:05:16.195Z,80.80
2019-02-17T14:07:45.247Z,80.30
2019-02-17T14:10:14.355Z,79.90
2019-02-17T14:12:43.432Z,79.70
2019-02-17T14:15:13.777Z,79.70
2019-02-17T14:17:42.940Z,79.60
2019-02-17T14:20:12.179Z,79.40
2019-02-17T14:22:41.236Z,79.20
2019-02-17T14:25:11.151Z,80.00
2019-02-17T14:27:40.450Z,79.20
2019-02-17T14:30:11.175Z,79.30
2019-02-17T14:32:40.256Z,79.10
2019-02-17T14:35:09.285Z,79.50
2019-02-17T14:37:38.323Z,79.40
2019-02-17T14:40:07.559Z,80.00
2019-02-17T14:42:36.480Z,80.10
2019-02-17T14:45:05.772Z,80.10
2019-02-17T14:47:34.784Z,80.30
2019-02-17T14:50:03.852Z,80.40
2019-02-17T14:52:33.157Z,80.70
2019-02-17T14:55:02.150Z,81.20
2019-02-17T14:57:31.143Z,80.90
2019-02-17T15:00:03.435Z,80.60
2019-02-17T15:02:32.481Z,80.70
2019-02-17T15:05:01.524Z,81.20
2019-02-17T15:07:30.561Z,81.20
2019-02-17T15:09:59.540Z,80.90
2019-02-17T15:12:28.572Z,81.20
2019-02-17T15:14:57.552Z,81.40
2019-02-17T15:17:26.601Z,81.20
2019-02-17T15:19:55.554Z,81.60
2019-02-17T15:22:24.556Z,81.50
2019-02-17T15:24:53.495Z,81.90
2019-02-17T15:27:22.447Z,82.50
2019-02-17T15:29:51.403Z,82.20
2019-02-17T15:32:20.361Z,82.60
2019-02-17T15:34:49.319Z,82.70
2019-02-17T15:37:18.337Z,83.20
2019-02-17T15:39:48.198Z,84.80
2019-02-17T15:42:17.247Z,86.80
2019-02-17T15:44:46.220Z,88.70
2019-02-17T15:47:15.160Z,89.20
2019-02-17T15:49:44.201Z,90.20
2019-02-17T15:52:13.265Z,90.60
2019-02-17T15:54:42.254Z,90.70
2019-02-17T15:57:11.357Z,90.90
2019-02-17T15:59:40.452Z,91.10
2019-02-17T16:02:09.373Z,91.50
2019-02-17T16:04:38.309Z,91.70
2019-02-17T16:07:07.312Z,92.00
2019-02-17T16:09:36.265Z,92.30
2019-02-17T16:12:05.338Z,92.60
2019-02-17T16:14:34.650Z,92.80
2019-02-17T16:17:03.708Z,93.10
2019-02-17T16:19:32.662Z,93.40
2019-02-17T16:22:01.756Z,93.80
2019-02-17T16:24:30.833Z,94.00
2019-02-17T16:26:59.842Z,94.20
2019-02-17T16:29:28.879Z,94.60
2019-02-17T16:31:57.904Z,94.80
2019-02-17T16:34:26.911Z,94.80
2019-02-17T16:36:55.999Z,95.20
2019-02-17T16:39:24.954Z,95.10
2019-02-17T16:41:53.945Z,95.30
2019-02-17T16:44:24.920Z,95.50
2019-02-17T16:46:53.980Z,96.40
2019-02-17T16:49:23.192Z,96.60
2019-02-17T16:51:52.360Z,96.90
2019-02-17T16:54:21.408Z,97.20
2019-02-17T16:56:50.482Z,97.20
2019-02-17T16:59:19.437Z,97.30
2019-02-17T17:01:48.401Z,97.60
2019-02-17T17:04:17.399Z,97.50
2019-02-17T17:06:46.522Z,97.80
2019-02-17T17:09:15.485Z,98.00
2019-02-17T17:11:44.408Z,98.20
2019-02-17T17:14:13.364Z,98.40
2019-02-17T17:16:42.364Z,98.60
2019-02-17T17:19:11.323Z,98.90
2019-02-17T17:21:40.360Z,99.10
2019-02-17T17:24:10.892Z,99.10
2019-02-17T17:26:39.880Z,99.20
2019-02-17T17:29:08.833Z,99.20
2019-02-17T17:31:37.753Z,99.40
2019-02-17T17:34:06.669Z,99.40
2019-02-17T17:36:35.659Z,99.60
2019-02-17T17:39:05.817Z,99.70
2019-02-17T17:41:34.803Z,99.70
2019-02-17T17:44:03.908Z,99.80
2019-02-17T17:46:32.861Z,99.80
2019-02-17T17:49:01.868Z,99.90
2019-02-17T17:51:30.862Z,99.90
2019-02-17T17:53:59.972Z,99.90
2019-02-17T17:56:28.968Z,99.90
2019-02-17T17:58:57.936Z,99.90
2019-02-17T18:01:26.889Z,99.90
2019-02-17T18:03:55.894Z,99.90
2019-02-17T18:06:24.897Z,99.90
2019-02-17T18:08:53.825Z,99.90
2019-02-17T18:11:22.758Z,99.90
2019-02-17T18:13:51.731Z,99.90
2019-02-17T18:16:20.829Z,99.90
2019-02-17T18:18:49.811Z,99.70
2019-02-17T18:21:18.865Z,99.50
2019-02-17T18:23:48.004Z,99.10
2019-02-17T18:26:17.000Z,98.80
2019-02-17T18:28:46.138Z,98.30
2019-02-17T18:31:15.256Z,98.00
2019-02-17T18:33:44.695Z,97.70
2019-02-17T18:36:13.658Z,97.50
2019-02-17T18:38:42.589Z,97.40
2019-02-17T18:41:11.541Z,97.50
2019-02-17T18:43:40.493Z,97.50
2019-02-17T18:46:09.554Z,97.50
2019-02-17T18:48:38.620Z,97.70
2019-02-17T18:51:07.618Z,97.60
2019-02-17T18:53:36.582Z,97.60
2019-02-17T18:56:05.616Z,97.70
2019-02-17T18:58:34.678Z,97.90
2019-02-17T19:01:03.815Z,98.00
2019-02-17T19:03:32.788Z,98.20
2019-02-17T19:06:01.776Z,98.30
2019-02-17T19:08:31.107Z,98.40
2019-02-17T19:11:00.169Z,98.50
2019-02-17T19:13:29.124Z,98.90
2019-02-17T19:15:58.106Z,98.90
2019-02-17T19:18:27.135Z,99.00
2019-02-17T19:20:56.212Z,98.90
2019-02-17T19:23:25.143Z,99.00
2019-02-17T19:25:54.194Z,99.10
2019-02-17T19:28:23.434Z,99.30
2019-02-17T19:30:52.396Z,99.40
2019-02-17T19:33:21.397Z,99.50
2019-02-17T19:35:51.089Z,99.60
2019-02-17T19:38:20.120Z,99.70
2019-02-17T19:40:49.142Z,99.80
2019-02-17T19:43:20.513Z,99.90
2019-02-17T19:45:49.552Z,99.90
2019-02-17T19:48:18.555Z,99.90
2019-02-17T19:50:47.533Z,99.90
2019-02-17T19:53:16.570Z,99.90
2019-02-17T19:55:45.582Z,99.90
2019-02-17T19:58:14.706Z,99.90
2019-02-17T20:00:43.772Z,99.90
2019-02-17T20:03:30.272Z,99.90
2019-02-17T20:06:01.186Z,99.90
2019-02-17T20:08:30.175Z,99.90
2019-02-17T20:10:59.326Z,99.90
2019-02-17T20:13:28.316Z,99.90
2019-02-17T20:15:57.290Z,99.90
2019-02-17T20:18:26.447Z,99.90
2019-02-17T20:20:55.400Z,99.90
2019-02-17T20:23:24.431Z,99.90
2019-02-17T20:25:53.529Z,99.90
2019-02-17T20:28:35.627Z,99.90
2019-02-17T20:30:53.279Z,99.90
2019-02-17T20:33:22.515Z,99.90
2019-02-17T20:36:02.092Z,99.90
2019-02-17T20:38:22.543Z,99.90
2019-02-17T20:40:51.580Z,99.90
2019-02-17T20:43:20.636Z,99.90
2019-02-17T20:45:52.668Z,99.90
2019-02-17T20:48:21.615Z,99.90
2019-02-17T20:50:50.549Z,99.90
2019-02-17T20:53:19.577Z,99.90
2019-02-17T20:55:48.625Z,99.90
2019-02-17T20:58:17.801Z,99.90
2019-02-17T21:00:46.803Z,99.90
2019-02-17T21:03:17.526Z,99.90
2019-02-17T21:05:46.576Z,99.90
2019-02-17T21:08:15.565Z,99.90
2019-02-17T21:10:44.698Z,99.90
2019-02-17T21:13:13.688Z,99.90
2019-02-17T21:15:45.185Z,99.90
2019-02-17T21:18:14.639Z,99.90
2019-02-17T21:20:43.639Z,99.90
2019-02-17T21:23:15.239Z,99.90
2019-02-17T21:25:44.656Z,99.90
2019-02-17T21:28:13.668Z,99.90
2019-02-17T21:30:42.612Z,99.90
2019-02-17T21:33:11.654Z,99.90
2019-02-17T21:35:40.682Z,99.90
2019-02-17T21:38:10.083Z,99.90
2019-02-17T21:40:39.125Z,99.90
2019-02-17T21:43:08.147Z,99.90
2019-02-17T21:45:38.932Z,99.90
2019-02-17T21:48:08.183Z,99.90
2019-02-17T21:50:37.133Z,99.90
2019-02-17T21:53:08.822Z,99.90
2019-02-17T21:55:37.161Z,99.90
2019-02-17T21:58:06.261Z,99.90
2019-02-17T22:00:35.376Z,99.90
2019-02-17T22:03:04.956Z,99.90
2019-02-17T22:05:33.979Z,99.90
2019-02-17T22:08:03.370Z,99.90
2019-02-17T22:10:32.429Z,99.90
2019-02-17T22:13:01.368Z,99.90
2019-02-17T22:15:30.387Z,99.90
2019-02-17T22:17:59.370Z,99.90
2019-02-17T22:20:28.305Z,99.90
2019-02-17T22:22:57.375Z,99.90
2019-02-17T22:25:26.368Z,99.90
2019-02-17T22:27:55.406Z,99.90
2019-02-17T22:30:27.273Z,99.90
2019-02-17T22:32:56.470Z,99.90
2019-02-17T22:35:25.446Z,99.90
2019-02-17T22:37:54.414Z,99.90
2019-02-17T22:40:23.423Z,99.90
2019-02-17T22:42:52.406Z,99.90
2019-02-17T22:45:21.368Z,99.90
2019-02-17T22:47:50.325Z,99.90
2019-02-17T22:50:19.266Z,99.90
2019-02-17T22:52:48.268Z,99.90
2019-02-17T22:55:17.259Z,99.90
2019-02-17T22:57:46.236Z,99.90
2019-02-17T23:00:29.824Z,99.90
2019-02-17T23:02:58.935Z,99.90
2019-02-17T23:05:27.963Z,99.90
2019-02-17T23:07:57.011Z,99.40
2019-02-17T23:10:25.958Z,98.90
2019-02-17T23:12:55.014Z,98.60
2019-02-17T23:15:24.004Z,98.40
2019-02-17T23:17:52.945Z,98.10
2019-02-17T23:20:21.878Z,97.70
2019-02-17T23:22:50.833Z,97.40
2019-02-17T23:25:19.956Z,97.10
2019-02-17T23:27:49.032Z,96.90
2019-02-17T23:30:18.006Z,96.90
2019-02-17T23:32:46.933Z,97.00
2019-02-17T23:35:15.875Z,97.20
2019-02-17T23:37:44.833Z,97.40
2019-02-17T23:40:13.939Z,97.60
2019-02-17T23:42:42.951Z,97.80
2019-02-17T23:45:12.187Z,98.10
2019-02-17T23:47:41.279Z,98.30
2019-02-17T23:50:10.390Z,98.20
2019-02-17T23:52:39.506Z,98.20
2019-02-17T23:55:08.573Z,98.40
2019-02-17T23:57:37.668Z,98.30
